createdAt,value
2023-05-12T00:01:45.539Z,101049.22
2023-05-12T00:04:13.282Z,101048.31
2023-05-12T00:06:41.290Z,101052.88
2023-05-12T00:09:09.741Z,101045.81
2023-05-12T00:11:40.817Z,101050.28
2023-05-12T00:14:09.055Z,101051.25
2023-05-12T00:16:37.079Z,101048.56
2023-05-12T00:19:04.800Z,101052.19
2023-05-12T00:21:32.900Z,101050.50
2023-05-12T00:24:00.554Z,101049.03
2023-05-12T00:26:28.524Z,101059.31
2023-05-12T00:28:56.234Z,101062.09
2023-05-12T00:31:24.308Z,101055.81
2023-05-12T00:33:52.156Z,101057.25
2023-05-12T00:36:20.149Z,101061.03
2023-05-12T00:38:47.810Z,101069.84
2023-05-12T00:41:16.261Z,101066.19
2023-05-12T00:43:43.960Z,101062.63
2023-05-12T00:46:12.540Z,101057.41
2023-05-12T00:48:40.558Z,101061.75
2023-05-12T00:51:08.967Z,101061.16
2023-05-12T00:53:48.469Z,101075.03
2023-05-12T00:56:20.040Z,101067.34
2023-05-12T00:58:48.025Z,101075.16
2023-05-12T01:01:17.721Z,101070.78
2023-05-12T01:03:47.760Z,101069.81
2023-05-12T01:06:43.808Z,101071.91
2023-05-12T01:09:12.775Z,101071.09
2023-05-12T01:11:40.778Z,101078.78
2023-05-12T01:14:09.504Z,101082.47
2023-05-12T01:16:51.420Z,101077.19
2023-05-12T01:19:49.607Z,101085.97
2023-05-12T01:22:18.266Z,101087.88
2023-05-12T01:24:54.928Z,101087.00
2023-05-12T01:27:25.925Z,101087.09
2023-05-12T01:30:00.451Z,101096.56
2023-05-12T01:32:30.574Z,101093.88
2023-05-12T01:34:59.310Z,101087.94
2023-05-12T01:37:27.585Z,101087.25
2023-05-12T01:39:55.997Z,101090.66
2023-05-12T01:42:24.027Z,101093.47
2023-05-12T01:44:52.008Z,101091.03
2023-05-12T01:47:21.767Z,101089.97
2023-05-12T01:50:07.506Z,101090.34
2023-05-12T01:52:38.792Z,101097.53
2023-05-12T01:55:10.901Z,101091.28
2023-05-12T01:57:46.415Z,101074.88
2023-05-12T02:00:14.719Z,101092.31
2023-05-12T02:02:45.430Z,101093.94
2023-05-12T02:05:14.188Z,101092.38
2023-05-12T02:07:45.200Z,101092.50
2023-05-12T02:10:13.832Z,101094.13
2023-05-12T02:12:41.828Z,101072.72
2023-05-12T02:15:10.615Z,101082.03
2023-05-12T02:17:43.117Z,101088.91
2023-05-12T02:20:12.434Z,101089.59
2023-05-12T02:22:40.805Z,101094.19
2023-05-12T02:25:09.167Z,101092.22
2023-05-12T02:27:37.456Z,101088.72
2023-05-12T02:30:06.668Z,101092.34
2023-05-12T02:32:34.726Z,101099.50
2023-05-12T02:35:02.489Z,101092.38
2023-05-12T02:37:30.697Z,101102.03
2023-05-12T02:39:58.445Z,101108.41
2023-05-12T02:42:31.039Z,101104.19
2023-05-12T02:44:58.704Z,101114.59
2023-05-12T02:47:26.612Z,101110.06
2023-05-12T02:49:55.614Z,101110.19
2023-05-12T02:52:24.141Z,101111.00
2023-05-12T02:54:52.013Z,101115.31
2023-05-12T02:57:20.114Z,101118.72
2023-05-12T02:59:47.761Z,101120.41
2023-05-12T03:02:15.887Z,101117.59
2023-05-12T03:04:43.764Z,101122.09
2023-05-12T03:07:11.745Z,101122.69
2023-05-12T03:09:39.544Z,101117.38
2023-05-12T03:12:08.004Z,101124.91
2023-05-12T03:14:35.822Z,101124.88
2023-05-12T03:17:03.970Z,101116.34
2023-05-12T03:19:31.738Z,101124.50
2023-05-12T03:21:59.781Z,101124.69
2023-05-12T03:24:27.807Z,101113.44
2023-05-12T03:26:56.224Z,101117.69
2023-05-12T03:29:24.638Z,101121.09
2023-05-12T03:31:52.978Z,101124.88
2023-05-12T03:34:20.989Z,101121.19
2023-05-12T03:36:49.913Z,101121.16
2023-05-12T03:39:18.543Z,101120.28
2023-05-12T03:41:46.517Z,101128.81
2023-05-12T03:44:14.335Z,101134.88
2023-05-12T03:46:42.528Z,101132.66
2023-05-12T03:49:10.672Z,101138.63
2023-05-12T03:51:38.741Z,101131.56
2023-05-12T03:54:06.462Z,101131.44
2023-05-12T03:56:34.729Z,101133.91
2023-05-12T03:59:02.512Z,101138.88
2023-05-12T04:01:30.627Z,101137.19
2023-05-12T04:03:58.366Z,101143.72
2023-05-12T04:06:26.519Z,101150.97
2023-05-12T04:08:54.323Z,101142.88
2023-05-12T04:11:22.336Z,101146.13
2023-05-12T04:13:51.348Z,101144.06
2023-05-12T04:16:19.347Z,101151.16
2023-05-12T04:18:47.000Z,101145.63
2023-05-12T04:21:15.021Z,101148.41
2023-05-12T04:23:43.763Z,101155.44
2023-05-12T04:26:11.786Z,101152.44
2023-05-12T04:28:39.601Z,101150.28
2023-05-12T04:31:07.581Z,101149.41
2023-05-12T04:33:36.978Z,101154.38
2023-05-12T04:36:06.447Z,101152.03
2023-05-12T04:38:34.272Z,101157.56
2023-05-12T04:41:02.323Z,101159.53
2023-05-12T04:46:02.002Z,101165.34
2023-05-12T04:48:29.848Z,101160.03
2023-05-12T04:51:00.325Z,101164.91
2023-05-12T04:53:28.529Z,101170.19
2023-05-12T04:55:56.839Z,101163.75
2023-05-12T04:58:26.770Z,101173.84
2023-05-12T05:00:54.828Z,101178.97
2023-05-12T05:03:23.499Z,101176.13
2023-05-12T05:05:51.824Z,101176.00
2023-05-12T05:08:19.599Z,101184.09
2023-05-12T05:10:47.646Z,101179.25
2023-05-12T05:13:16.543Z,101184.63
2023-05-12T05:15:55.778Z,101182.78
2023-05-12T05:18:25.908Z,101182.25
2023-05-12T05:20:58.429Z,101194.16
2023-05-12T05:23:27.193Z,101189.28
2023-05-12T05:25:56.197Z,101197.31
2023-05-12T05:28:24.538Z,101187.38
2023-05-12T05:30:52.831Z,101193.19
2023-05-12T05:33:20.554Z,101184.28
2023-05-12T05:35:48.949Z,101191.59
2023-05-12T05:38:17.313Z,101199.06
2023-05-12T05:40:52.919Z,101193.81
2023-05-12T05:43:22.015Z,101201.13
2023-05-12T05:45:50.432Z,101198.91
2023-05-12T05:48:19.273Z,101203.50
2023-05-12T05:50:48.774Z,101205.53
2023-05-12T05:53:18.475Z,101195.34
2023-05-12T05:55:48.603Z,101194.00
2023-05-12T05:58:16.898Z,101203.81
2023-05-12T06:00:46.637Z,101205.19
2023-05-12T06:03:14.454Z,101196.88
2023-05-12T06:05:44.479Z,101203.25
2023-05-12T06:08:13.602Z,101211.97
2023-05-12T06:10:42.066Z,101209.13
2023-05-12T06:13:10.065Z,101208.81
2023-05-12T06:15:38.110Z,101205.53
2023-05-12T06:18:05.984Z,101206.19
2023-05-12T06:20:34.507Z,101204.16
2023-05-12T06:23:02.619Z,101210.97
2023-05-12T06:25:33.107Z,101209.69
2023-05-12T06:28:01.809Z,101214.09
2023-05-12T06:30:29.928Z,101207.50
2023-05-12T06:32:57.674Z,101213.41
2023-05-12T06:35:25.708Z,101210.81
2023-05-12T06:37:53.511Z,101211.03
2023-05-12T06:40:21.643Z,101217.59
2023-05-12T06:42:49.937Z,101216.22
2023-05-12T06:45:23.387Z,101224.97
2023-05-12T06:47:51.511Z,101222.72
2023-05-12T06:50:19.795Z,101216.06
2023-05-12T06:52:52.409Z,101219.97
2023-05-12T06:55:21.239Z,101223.72
2023-05-12T06:57:51.776Z,101218.13
2023-05-12T07:00:20.076Z,101225.19
2023-05-12T07:02:47.787Z,101217.34
2023-05-12T07:05:15.829Z,101223.28
2023-05-12T07:07:43.427Z,101229.97
2023-05-12T07:10:11.699Z,101221.00
2023-05-12T07:12:39.665Z,101225.31
2023-05-12T07:15:08.593Z,101222.34
2023-05-12T07:17:36.366Z,101228.44
2023-05-12T07:20:05.717Z,101225.97
2023-05-12T07:22:33.555Z,101233.13
2023-05-12T07:25:01.868Z,101230.91
2023-05-12T07:27:29.590Z,101237.91
2023-05-12T07:29:57.507Z,101231.34
2023-05-12T07:32:25.944Z,101236.19
2023-05-12T07:34:53.944Z,101236.03
2023-05-12T07:37:21.573Z,101244.88
2023-05-12T07:39:49.789Z,101244.63
2023-05-12T07:42:17.516Z,101233.84
2023-05-12T07:44:45.514Z,101234.50
2023-05-12T07:47:13.254Z,101237.63
2023-05-12T07:49:41.514Z,101239.66
2023-05-12T07:52:09.587Z,101253.81
2023-05-12T07:54:37.662Z,101241.22
2023-05-12T07:57:05.601Z,101239.47
2023-05-12T07:59:33.602Z,101261.41
2023-05-12T08:02:01.671Z,101239.59
2023-05-12T08:04:29.779Z,101252.88
2023-05-12T08:06:57.483Z,101239.47
2023-05-12T08:09:25.382Z,101238.91
2023-05-12T08:11:53.118Z,101244.03
2023-05-12T08:14:22.721Z,101239.91
2023-05-12T08:16:50.728Z,101248.63
2023-05-12T08:19:18.732Z,101230.13
2023-05-12T08:21:46.375Z,101241.38
2023-05-12T08:24:14.460Z,101231.38
2023-05-12T08:26:42.173Z,101227.13
2023-05-12T08:29:10.216Z,101239.25
2023-05-12T08:31:39.067Z,101237.28
2023-05-12T08:34:10.698Z,101233.63
2023-05-12T08:36:42.464Z,101239.47
2023-05-12T08:39:10.771Z,101233.53
2023-05-12T08:42:17.542Z,101246.88
2023-05-12T08:44:46.560Z,101244.94
2023-05-12T08:47:18.560Z,101242.13
2023-05-12T08:49:57.439Z,101240.78
2023-05-12T08:52:26.074Z,101240.19
2023-05-12T08:54:56.489Z,101239.91
2023-05-12T08:57:26.408Z,101242.53
2023-05-12T08:59:57.241Z,101233.53
2023-05-12T09:02:37.704Z,101225.84
2023-05-12T09:05:12.364Z,101224.91
2023-05-12T09:07:48.062Z,101225.00
2023-05-12T09:10:33.619Z,101232.94
2023-05-12T09:13:14.769Z,101211.31
2023-05-12T09:15:48.001Z,101224.03
2023-05-12T09:18:15.812Z,101236.50
2023-05-12T09:20:44.072Z,101219.84
2023-05-12T09:23:20.057Z,101227.97
2023-05-12T09:26:00.762Z,101219.13
2023-05-12T09:28:38.800Z,101214.88
2023-05-12T09:31:18.401Z,101239.34
2023-05-12T09:33:46.221Z,101230.19
2023-05-12T09:36:21.513Z,101223.47
2023-05-12T09:39:07.162Z,101214.31
2023-05-12T09:41:43.138Z,101209.78
2023-05-12T09:44:14.659Z,101212.16
2023-05-12T09:46:42.654Z,101214.34
2023-05-12T09:49:10.574Z,101204.03
2023-05-12T09:51:39.937Z,101210.22
2023-05-12T09:54:08.082Z,101212.16
2023-05-12T09:56:38.490Z,101208.28
2023-05-12T09:59:07.332Z,101215.31
2023-05-12T10:01:35.941Z,101199.38
2023-05-12T10:04:07.669Z,101217.59
2023-05-12T10:06:43.149Z,101199.00
2023-05-12T10:09:18.556Z,101192.34
2023-05-12T10:11:47.868Z,101197.69
2023-05-12T10:14:16.645Z,101201.75
2023-05-12T10:16:47.262Z,101194.41
2023-05-12T10:19:15.706Z,101209.84
2023-05-12T10:21:47.491Z,101201.34
2023-05-12T10:24:18.537Z,101192.84
2023-05-12T10:26:46.518Z,101201.44
2023-05-12T10:29:15.186Z,101190.16
2023-05-12T10:31:45.636Z,101184.94
2023-05-12T10:34:21.672Z,101196.94
2023-05-12T10:36:51.561Z,101195.44
2023-05-12T10:39:19.977Z,101182.16
2023-05-12T10:41:48.064Z,101184.19
2023-05-12T10:44:26.314Z,101194.22
2023-05-12T10:47:00.434Z,101188.81
2023-05-12T10:49:41.913Z,101174.66
2023-05-12T10:52:15.658Z,101176.84
2023-05-12T10:54:44.847Z,101191.25
2023-05-12T10:57:21.189Z,101173.22
2023-05-12T10:59:57.644Z,101187.34
2023-05-12T11:02:32.569Z,101179.03
2023-05-12T11:05:07.282Z,101195.53
2023-05-12T11:07:36.155Z,101198.59
2023-05-12T11:10:07.610Z,101191.22
2023-05-12T11:12:37.326Z,101170.53
2023-05-12T11:15:06.807Z,101180.78
2023-05-12T11:17:39.228Z,101188.84
2023-05-12T11:20:09.809Z,101178.59
2023-05-12T11:22:40.644Z,101167.00
2023-05-12T11:25:12.638Z,101176.78
2023-05-12T11:27:47.593Z,101177.38
2023-05-12T11:30:15.996Z,101163.91
2023-05-12T11:32:44.343Z,101176.72
2023-05-12T11:35:17.106Z,101173.03
2023-05-12T11:37:45.911Z,101181.75
2023-05-12T11:40:18.139Z,101174.16
2023-05-12T11:42:52.282Z,101172.09
2023-05-12T11:45:24.781Z,101185.19
2023-05-12T11:47:53.850Z,101175.13
2023-05-12T11:50:25.876Z,101181.09
2023-05-12T11:52:54.689Z,101163.63
2023-05-12T11:55:24.125Z,101162.44
2023-05-12T11:58:03.192Z,101155.69
2023-05-12T12:00:40.221Z,101158.91
2023-05-12T12:03:15.759Z,101152.16
2023-05-12T12:05:45.948Z,101157.53
2023-05-12T12:08:15.669Z,101168.91
2023-05-12T12:10:47.243Z,101171.22
2023-05-12T12:13:25.648Z,101167.59
2023-05-12T12:15:54.468Z,101165.75
2023-05-12T12:18:22.494Z,101155.34
2023-05-12T12:20:50.285Z,101161.63
2023-05-12T12:23:18.276Z,101159.63
2023-05-12T12:25:45.902Z,101158.03
2023-05-12T12:28:14.005Z,101144.81
2023-05-12T12:30:41.746Z,101152.03
2023-05-12T12:33:09.902Z,101163.16
2023-05-12T12:35:37.671Z,101156.75
2023-05-12T12:38:05.723Z,101153.75
2023-05-12T12:40:33.438Z,101139.66
2023-05-12T12:43:01.468Z,101140.88
2023-05-12T12:45:29.573Z,101144.59
2023-05-12T12:47:57.542Z,101139.03
2023-05-12T12:50:27.197Z,101125.81
2023-05-12T12:52:55.430Z,101149.28
2023-05-12T12:55:23.426Z,101146.81
2023-05-12T12:57:51.546Z,101142.25
2023-05-12T13:00:19.740Z,101140.34
2023-05-12T13:02:47.909Z,101140.06
2023-05-12T13:05:16.405Z,101130.09
2023-05-12T13:07:44.431Z,101125.66
2023-05-12T13:10:12.503Z,101115.75
2023-05-12T13:12:40.472Z,101129.13
2023-05-12T13:15:08.628Z,101122.69
2023-05-12T13:17:36.604Z,101109.38
2023-05-12T13:20:04.755Z,101114.19
2023-05-12T13:22:33.265Z,101123.19
2023-05-12T13:25:01.177Z,101110.00
2023-05-12T13:27:29.257Z,101107.25
2023-05-12T13:29:56.937Z,101101.50
2023-05-12T13:32:24.946Z,101102.78
2023-05-12T13:34:52.676Z,101092.59
2023-05-12T13:37:20.716Z,101113.84
2023-05-12T13:39:48.562Z,101102.41
2023-05-12T13:42:17.278Z,101108.53
2023-05-12T13:44:45.013Z,101096.63
2023-05-12T13:47:12.932Z,101104.06
2023-05-12T13:49:40.911Z,101110.16
2023-05-12T13:52:09.069Z,101101.19
2023-05-12T13:54:36.982Z,101097.34
2023-05-12T13:57:06.122Z,101093.34
2023-05-12T13:59:34.028Z,101086.63
2023-05-12T14:02:02.505Z,101077.78
2023-05-12T14:04:30.364Z,101071.00
2023-05-12T14:06:58.133Z,101076.66
2023-05-12T14:09:26.219Z,101067.19
2023-05-12T14:11:54.491Z,101081.34
2023-05-12T14:14:22.420Z,101094.25
2023-05-12T14:16:50.434Z,101092.31
2023-05-12T14:19:18.482Z,101082.50
2023-05-12T14:21:46.212Z,101078.22
2023-05-12T14:24:14.204Z,101074.69
2023-05-12T14:26:41.909Z,101071.41
2023-05-12T14:29:10.179Z,101075.72
2023-05-12T14:31:37.934Z,101066.72
2023-05-12T14:34:05.951Z,101067.53
2023-05-12T14:36:33.627Z,101093.91
2023-05-12T14:39:01.587Z,101081.25
2023-05-12T14:41:29.293Z,101069.47
2023-05-12T14:43:57.875Z,101082.25
2023-05-12T14:46:25.838Z,101076.03
2023-05-12T14:48:53.901Z,101084.00
2023-05-12T14:51:21.582Z,101073.16
2023-05-12T14:53:49.576Z,101082.31
2023-05-12T14:56:17.290Z,101079.28
2023-05-12T14:58:45.141Z,101083.34
2023-05-12T15:01:12.822Z,101075.00
2023-05-12T15:03:40.765Z,101068.06
2023-05-12T15:06:08.769Z,101082.38
2023-05-12T15:08:36.879Z,101064.88
2023-05-12T15:11:05.135Z,101075.53
2023-05-12T15:13:33.296Z,101064.97
2023-05-12T15:16:01.509Z,101065.41
2023-05-12T15:18:29.578Z,101075.47
2023-05-12T15:20:57.547Z,101080.09
2023-05-12T15:23:25.737Z,101075.59
2023-05-12T15:25:53.416Z,101068.00
2023-05-12T15:28:21.375Z,101059.56
2023-05-12T15:30:56.701Z,101075.28
2023-05-12T15:33:26.802Z,101064.34
2023-05-12T15:35:54.565Z,101060.63
2023-05-12T15:38:22.595Z,101068.25
2023-05-12T15:40:50.322Z,101070.41
2023-05-12T15:43:18.392Z,101062.97
2023-05-12T15:45:46.271Z,101063.47
2023-05-12T15:48:14.223Z,101060.56
2023-05-12T15:50:42.718Z,101068.84
2023-05-12T15:53:10.832Z,101056.75
2023-05-12T15:55:38.546Z,101056.41
2023-05-12T15:58:08.296Z,101059.91
2023-05-12T16:00:36.203Z,101058.38
2023-05-12T16:03:04.399Z,101063.75
2023-05-12T16:05:34.106Z,101059.13
2023-05-12T16:08:02.039Z,101052.34
2023-05-12T16:10:29.953Z,101059.81
2023-05-12T16:12:57.904Z,101059.13
2023-05-12T16:15:25.600Z,101056.84
2023-05-12T16:17:53.601Z,101055.44
2023-05-12T16:20:21.908Z,101058.88
2023-05-12T16:22:51.286Z,101060.03
2023-05-12T16:25:20.314Z,101059.56
2023-05-12T16:27:48.577Z,101062.41
2023-05-12T16:30:19.279Z,101046.00
2023-05-12T16:32:48.316Z,101067.06
2023-05-12T16:35:16.575Z,101065.31
2023-05-12T16:37:44.508Z,101069.63
2023-05-12T16:40:12.507Z,101060.50
2023-05-12T16:42:40.787Z,101061.72
2023-05-12T16:45:09.221Z,101066.84
2023-05-12T16:47:37.191Z,101061.75
2023-05-12T16:50:05.486Z,101059.13
2023-05-12T16:52:33.653Z,101066.66
2023-05-12T16:55:01.692Z,101063.25
2023-05-12T16:57:29.663Z,101068.31
2023-05-12T16:59:57.346Z,101072.06
2023-05-12T17:02:25.471Z,101061.09
2023-05-12T17:04:53.422Z,101071.72
2023-05-12T17:07:21.434Z,101065.41
2023-05-12T17:09:49.064Z,101062.47
2023-05-12T17:12:17.156Z,101073.09
2023-05-12T17:14:50.227Z,101069.25
2023-05-12T17:17:24.006Z,101073.78
2023-05-12T17:19:54.227Z,101074.59
2023-05-12T17:22:22.384Z,101070.75
2023-05-12T17:24:50.049Z,101072.69
2023-05-12T17:27:18.010Z,101081.41
2023-05-12T17:29:46.042Z,101070.94
2023-05-12T17:32:14.085Z,101074.16
2023-05-12T17:34:41.791Z,101076.38
2023-05-12T17:37:10.075Z,101080.25
2023-05-12T17:39:40.564Z,101081.47
2023-05-12T17:42:09.235Z,101080.53
2023-05-12T17:44:37.009Z,101079.53
2023-05-12T17:47:05.459Z,101083.03
2023-05-12T17:49:33.248Z,101085.19
2023-05-12T17:52:01.226Z,101084.97
2023-05-12T17:54:29.013Z,101089.59
2023-05-12T17:56:57.202Z,101084.66
2023-05-12T17:59:25.192Z,101089.50
2023-05-12T18:01:53.574Z,101093.22
2023-05-12T18:04:23.072Z,101095.41
2023-05-12T18:06:51.282Z,101091.53
2023-05-12T18:09:23.506Z,101094.91
2023-05-12T18:11:51.440Z,101098.47
2023-05-12T18:14:19.156Z,101106.97
2023-05-12T18:16:47.285Z,101104.84
2023-05-12T18:19:15.349Z,101107.34
2023-05-12T18:21:43.439Z,101106.06
2023-05-12T18:24:11.273Z,101110.69
2023-05-12T18:26:39.226Z,101114.00
2023-05-12T18:29:06.869Z,101115.53
2023-05-12T18:31:36.173Z,101114.06
2023-05-12T18:34:03.836Z,101117.72
2023-05-12T18:36:32.234Z,101116.63
2023-05-12T18:39:00.019Z,101119.53
2023-05-12T18:41:28.140Z,101118.69
2023-05-12T18:43:55.879Z,101126.00
2023-05-12T18:46:23.889Z,101133.06
2023-05-12T18:48:51.642Z,101135.00
2023-05-12T18:51:19.726Z,101127.09
2023-05-12T18:53:47.945Z,101135.59
2023-05-12T18:56:15.932Z,101137.03
2023-05-12T18:58:44.299Z,101138.50
2023-05-12T19:01:12.410Z,101133.63
2023-05-12T19:03:41.005Z,101136.47
2023-05-12T19:06:08.918Z,101136.88
2023-05-12T19:08:36.564Z,101144.53
2023-05-12T19:11:04.784Z,101138.06
2023-05-12T19:13:32.543Z,101146.13
2023-05-12T19:16:00.782Z,101145.75
2023-05-12T19:18:28.495Z,101156.66
2023-05-12T19:20:56.781Z,101151.78
2023-05-12T19:23:24.613Z,101152.72
2023-05-12T19:25:52.628Z,101156.44
2023-05-12T19:28:20.322Z,101151.28
2023-05-12T19:30:48.243Z,101147.16
2023-05-12T19:33:17.342Z,101154.44
2023-05-12T19:35:45.585Z,101152.03
2023-05-12T19:38:13.287Z,101157.50
2023-05-12T19:40:41.273Z,101159.69
2023-05-12T19:43:10.672Z,101159.69
2023-05-12T19:45:39.102Z,101148.03
2023-05-12T19:48:07.658Z,101160.22
2023-05-12T19:50:35.751Z,101157.22
2023-05-12T19:53:03.441Z,101153.78
2023-05-12T19:55:31.590Z,101160.97
2023-05-12T19:58:00.008Z,101153.91
2023-05-12T20:00:28.177Z,101155.06
2023-05-12T20:02:55.908Z,101159.72
2023-05-12T20:05:24.506Z,101153.94
2023-05-12T20:07:52.257Z,101166.44
2023-05-12T20:10:20.366Z,101159.50
2023-05-12T20:12:48.097Z,101160.50
2023-05-12T20:15:16.296Z,101151.84
2023-05-12T20:17:44.088Z,101160.56
2023-05-12T20:20:12.512Z,101165.81
2023-05-12T20:22:40.534Z,101159.25
2023-05-12T20:25:09.189Z,101155.81
2023-05-12T20:27:36.908Z,101155.06
2023-05-12T20:30:05.892Z,101163.00
2023-05-12T20:32:33.570Z,101155.25
2023-05-12T20:35:01.948Z,101159.56
2023-05-12T20:37:29.692Z,101158.91
2023-05-12T20:39:57.860Z,101156.41
2023-05-12T20:44:53.935Z,101155.91
2023-05-12T20:47:21.776Z,101154.38
2023-05-12T20:49:54.420Z,101156.31
2023-05-12T20:52:23.301Z,101156.28
2023-05-12T20:54:57.501Z,101155.66
2023-05-12T20:57:28.921Z,101157.50
2023-05-12T20:59:57.155Z,101161.91
2023-05-12T21:02:26.944Z,101165.44
2023-05-12T21:04:55.427Z,101163.78
2023-05-12T21:07:23.243Z,101161.13
2023-05-12T21:09:51.264Z,101161.25
2023-05-12T21:12:19.016Z,101159.44
2023-05-12T21:14:47.137Z,101168.31
2023-05-12T21:17:16.439Z,101164.13
2023-05-12T21:19:44.464Z,101162.38
2023-05-12T21:22:12.987Z,101165.78
2023-05-12T21:24:41.924Z,101180.69
2023-05-12T21:27:09.809Z,101168.66
2023-05-12T21:29:37.964Z,101166.09
2023-05-12T21:32:06.249Z,101184.50
2023-05-12T21:34:35.951Z,101172.09
2023-05-12T21:37:03.911Z,101172.75
2023-05-12T21:39:31.869Z,101184.25
2023-05-12T21:41:59.750Z,101172.06
2023-05-12T21:44:28.472Z,101176.66
2023-05-12T21:46:58.673Z,101184.72
2023-05-12T21:49:26.884Z,101183.03
2023-05-12T21:51:57.382Z,101178.75
2023-05-12T21:54:25.465Z,101191.13
2023-05-12T21:56:53.225Z,101187.63
2023-05-12T21:59:21.169Z,101186.09
2023-05-12T22:01:48.922Z,101183.47
2023-05-12T22:04:16.956Z,101190.50
2023-05-12T22:06:44.743Z,101191.44
2023-05-12T22:09:12.983Z,101197.50
2023-05-12T22:11:40.705Z,101188.72
2023-05-12T22:14:08.860Z,101188.72
2023-05-12T22:16:41.862Z,101195.63
2023-05-12T22:19:10.939Z,101186.97
2023-05-12T22:21:38.933Z,101185.25
2023-05-12T22:24:07.238Z,101184.16
2023-05-12T22:26:34.958Z,101191.81
2023-05-12T22:29:02.966Z,101186.78
2023-05-12T22:31:30.661Z,101189.56
2023-05-12T22:33:58.638Z,101185.34
2023-05-12T22:36:26.437Z,101173.31
2023-05-12T22:38:54.336Z,101179.38
2023-05-12T22:41:22.048Z,101188.06
2023-05-12T22:43:50.127Z,101186.31
2023-05-12T22:46:17.906Z,101180.06
2023-05-12T22:48:45.943Z,101181.84
2023-05-12T22:51:13.568Z,101173.22
2023-05-12T22:53:41.574Z,101174.09
2023-05-12T22:56:09.304Z,101166.88
2023-05-12T22:58:37.314Z,101171.31
2023-05-12T23:01:05.117Z,101176.56
2023-05-12T23:03:33.172Z,101173.03
2023-05-12T23:06:00.885Z,101173.09
2023-05-12T23:08:28.879Z,101177.06
2023-05-12T23:10:56.538Z,101179.63
2023-05-12T23:13:24.544Z,101174.47
2023-05-12T23:15:52.170Z,101183.22
2023-05-12T23:18:20.669Z,101172.09
2023-05-12T23:20:48.368Z,101180.81
2023-05-12T23:23:16.302Z,101185.88
2023-05-12T23:25:43.993Z,101176.19
2023-05-12T23:28:12.012Z,101182.31
2023-05-12T23:30:39.670Z,101179.81
2023-05-12T23:33:07.745Z,101175.59
2023-05-12T23:35:35.559Z,101168.72
2023-05-12T23:38:03.533Z,101168.75
2023-05-12T23:40:33.472Z,101168.00
2023-05-12T23:43:01.707Z,101169.00
2023-05-12T23:45:29.349Z,101170.88
2023-05-12T23:47:57.297Z,101169.25
2023-05-12T23:50:25.100Z,101170.19
2023-05-12T23:52:53.695Z,101171.97
2023-05-12T23:55:22.347Z,101169.38
2023-05-12T23:57:50.497Z,101162.47
